createdAt,value
2018-06-10T00:02:30.809Z,23.05
2018-06-10T00:07:34.159Z,21.80
2018-06-10T00:12:37.514Z,23.57
2018-06-10T00:17:40.917Z,23.32
2018-06-10T00:22:44.298Z,23.57
2018-06-10T00:27:47.706Z,22.93
2018-06-10T00:32:51.072Z,22.52
2018-06-10T00:37:54.466Z,22.82
2018-06-10T00:42:57.818Z,21.30
2018-06-10T00:48:01.159Z,22.27
2018-06-10T00:53:04.668Z,20.37
2018-06-10T00:58:08.011Z,22.77
2018-06-10T01:03:17.176Z,20.32
2018-06-10T01:08:20.588Z,18.05
2018-06-10T01:13:23.942Z,19.40
2018-06-10T01:18:27.301Z,20.33
2018-06-10T01:23:30.673Z,21.25
2018-06-10T01:28:34.068Z,19.82
2018-06-10T01:33:37.489Z,20.90
2018-06-10T01:38:40.837Z,20.10
2018-06-10T01:43:44.226Z,20.20
2018-06-10T01:48:47.615Z,18.95
2018-06-10T01:53:50.939Z,20.05
2018-06-10T01:58:54.347Z,18.85
2018-06-10T02:03:57.712Z,21.75
2018-06-10T02:09:01.135Z,17.77
2018-06-10T02:14:04.513Z,22.30
2018-06-10T02:19:07.927Z,21.43
2018-06-10T02:24:11.246Z,21.70
2018-06-10T02:29:14.613Z,20.85
2018-06-10T02:34:18.006Z,21.93
2018-06-10T02:39:21.477Z,24.07
2018-06-10T02:44:24.854Z,20.70
2018-06-10T02:49:28.568Z,21.12
2018-06-10T02:54:31.929Z,18.60
2018-06-10T02:59:35.275Z,18.37
2018-06-10T03:04:38.735Z,19.57
2018-06-10T03:09:42.119Z,22.83
2018-06-10T03:14:45.485Z,18.67
2018-06-10T03:19:48.785Z,20.43
2018-06-10T03:24:52.162Z,18.70
2018-06-10T03:29:55.531Z,20.30
2018-06-10T03:34:58.968Z,18.07
2018-06-10T03:40:02.371Z,21.12
2018-06-10T03:45:05.695Z,20.23
2018-06-10T03:50:09.062Z,22.10
2018-06-10T03:55:12.472Z,20.62
2018-06-10T04:00:15.904Z,19.60
2018-06-10T04:05:19.271Z,20.60
2018-06-10T04:10:22.612Z,17.65
2018-06-10T04:15:26.009Z,20.03
2018-06-10T04:20:29.355Z,20.15
2018-06-10T04:25:32.698Z,18.85
2018-06-10T04:30:36.031Z,20.83
2018-06-10T04:35:39.444Z,20.43
2018-06-10T04:40:42.838Z,21.00
2018-06-10T04:45:47.183Z,26.50
2018-06-10T04:50:50.551Z,29.27
2018-06-10T04:55:53.930Z,29.00
2018-06-10T05:00:57.271Z,30.00
2018-06-10T05:06:00.886Z,28.42
2018-06-10T05:11:04.199Z,30.90
2018-06-10T05:16:07.558Z,29.67
2018-06-10T05:21:10.970Z,30.57
2018-06-10T05:26:14.363Z,27.25
2018-06-10T05:31:18.692Z,29.40
2018-06-10T05:36:22.151Z,30.03
2018-06-10T05:41:25.541Z,31.15
2018-06-10T05:46:28.971Z,28.50
2018-06-10T05:51:32.390Z,28.30
2018-06-10T05:56:35.676Z,28.52
2018-06-10T06:01:38.985Z,27.20
2018-06-10T06:06:42.395Z,26.25
2018-06-10T06:11:45.820Z,26.60
2018-06-10T06:16:49.202Z,27.93
2018-06-10T06:21:54.375Z,26.85
2018-06-10T06:26:58.419Z,31.40
2018-06-10T06:32:02.110Z,27.60
2018-06-10T06:37:05.896Z,24.70
2018-06-10T06:42:10.158Z,27.07
2018-06-10T06:47:14.796Z,23.50
2018-06-10T06:52:20.530Z,22.90
2018-06-10T06:57:23.921Z,27.77
2018-06-10T07:02:28.321Z,31.77
2018-06-10T07:07:31.798Z,27.85
2018-06-10T07:12:35.808Z,28.45
2018-06-10T07:17:39.246Z,29.60
2018-06-10T07:22:42.666Z,25.27
2018-06-10T07:27:47.184Z,29.95
2018-06-10T07:32:50.569Z,26.93
2018-06-10T07:37:54.024Z,23.20
2018-06-10T07:42:59.395Z,22.10
2018-06-10T07:48:02.756Z,20.95
2018-06-10T07:53:06.133Z,23.77
2018-06-10T07:58:12.491Z,20.27
2018-06-10T08:03:15.868Z,18.37
2018-06-10T08:08:19.299Z,16.23
2018-06-10T08:13:23.147Z,18.57
2018-06-10T08:18:26.541Z,18.67
2018-06-10T08:23:29.921Z,17.30
2018-06-10T08:28:33.295Z,16.30
2018-06-10T08:33:36.665Z,16.75
2018-06-10T08:38:40.063Z,16.32
2018-06-10T08:43:43.507Z,17.37
2018-06-10T08:48:46.926Z,15.58
2018-06-10T08:53:50.285Z,15.78
2018-06-10T08:58:54.050Z,13.60
2018-06-10T09:03:57.411Z,16.30
2018-06-10T09:09:00.848Z,15.35
2018-06-10T09:14:04.467Z,15.60
2018-06-10T09:19:07.892Z,15.93
2018-06-10T09:24:11.229Z,16.80
2018-06-10T09:29:14.551Z,14.70
2018-06-10T09:34:17.901Z,15.32
2018-06-10T09:39:21.396Z,18.17
2018-06-10T09:44:24.839Z,17.60
2018-06-10T09:49:28.193Z,15.20
2018-06-10T09:54:31.517Z,16.30
2018-06-10T09:59:34.908Z,14.45
2018-06-10T10:04:38.251Z,14.15
2018-06-10T10:09:41.613Z,16.00
2018-06-10T10:14:45.012Z,14.10
2018-06-10T10:19:48.352Z,12.85
2018-06-10T10:24:51.762Z,12.07
2018-06-10T10:29:55.187Z,11.27
2018-06-10T10:34:58.598Z,12.50
2018-06-10T10:40:02.013Z,12.05
2018-06-10T10:45:05.586Z,12.63
2018-06-10T10:50:08.964Z,11.93
2018-06-10T10:55:12.359Z,10.98
2018-06-10T11:00:15.680Z,10.20
2018-06-10T11:05:19.084Z,10.45
2018-06-10T11:10:22.438Z,9.80
2018-06-10T11:15:25.836Z,10.08
2018-06-10T11:20:29.274Z,8.77
2018-06-10T11:25:32.679Z,9.43
2018-06-10T11:30:36.061Z,9.15
2018-06-10T11:35:39.447Z,8.75
2018-06-10T11:40:42.847Z,8.95
2018-06-10T11:45:46.198Z,9.80
2018-06-10T11:50:49.611Z,9.40
2018-06-10T11:55:53.079Z,9.60
2018-06-10T12:00:56.565Z,9.30
2018-06-10T12:06:00.816Z,8.70
2018-06-10T12:11:04.184Z,9.50
2018-06-10T12:16:07.579Z,8.05
2018-06-10T12:21:11.102Z,8.40
2018-06-10T12:26:14.507Z,9.20
2018-06-10T12:31:18.101Z,8.30
2018-06-10T12:36:21.495Z,9.30
2018-06-10T12:41:24.971Z,9.10
2018-06-10T12:46:28.442Z,9.50
2018-06-10T12:51:32.920Z,8.90
2018-06-10T12:56:36.380Z,8.95
2018-06-10T13:01:39.832Z,8.55
2018-06-10T13:06:43.204Z,8.43
2018-06-10T13:11:46.892Z,7.80
2018-06-10T13:16:50.312Z,8.00
2018-06-10T13:21:53.854Z,8.50
2018-06-10T13:26:57.951Z,8.50
2018-06-10T13:32:02.338Z,9.00
2018-06-10T13:37:05.826Z,9.20
2018-06-10T13:42:09.293Z,8.70
2018-06-10T13:47:12.730Z,9.48
2018-06-10T13:52:16.110Z,10.20
2018-06-10T13:57:19.822Z,11.60
2018-06-10T14:02:23.311Z,11.40
2018-06-10T14:07:26.760Z,11.73
2018-06-10T14:12:30.286Z,10.30
2018-06-10T14:17:33.955Z,8.18
2018-06-10T14:22:37.342Z,7.60
2018-06-10T14:27:40.700Z,9.20
2018-06-10T14:32:44.099Z,9.55
2018-06-10T14:37:47.578Z,9.33
2018-06-10T14:42:50.932Z,9.98
2018-06-10T14:47:54.278Z,8.38
2018-06-10T14:58:01.676Z,8.50
2018-06-10T15:03:05.057Z,8.20
2018-06-10T15:08:08.448Z,8.00
2018-06-10T15:13:11.899Z,8.60
2018-06-10T15:18:15.309Z,7.97
2018-06-10T15:23:18.606Z,8.30
2018-06-10T15:28:21.986Z,8.48
2018-06-10T15:33:25.309Z,8.88
2018-06-10T15:38:28.635Z,8.70
2018-06-10T15:43:32.142Z,8.43
2018-06-10T15:48:35.492Z,8.40
2018-06-10T15:53:38.905Z,7.62
2018-06-10T15:58:42.246Z,7.40
2018-06-10T16:03:45.604Z,7.10
2018-06-10T16:08:48.990Z,8.03
2018-06-10T16:13:53.294Z,8.00
2018-06-10T16:18:57.336Z,9.40
2018-06-10T16:24:01.350Z,9.00
2018-06-10T16:29:04.759Z,8.70
2018-06-10T16:34:08.161Z,7.78
2018-06-10T16:39:11.533Z,7.87
2018-06-10T16:44:14.874Z,8.08
2018-06-10T16:49:18.312Z,7.43
2018-06-10T16:54:21.579Z,7.80
2018-06-10T16:59:25.459Z,8.13
2018-06-10T17:04:28.813Z,8.00
2018-06-10T17:09:32.270Z,8.23
2018-06-10T17:14:35.734Z,7.60
2018-06-10T17:19:39.152Z,8.13
2018-06-10T17:24:42.510Z,7.90
2018-06-10T17:29:45.921Z,7.70
2018-06-10T17:34:49.307Z,9.05
2018-06-10T17:39:52.660Z,8.33
2018-06-10T17:44:56.068Z,8.20
2018-06-10T17:49:59.517Z,8.83
2018-06-10T17:55:03.136Z,8.23
2018-06-10T18:00:06.567Z,9.08
2018-06-10T18:05:10.050Z,8.70
2018-06-10T18:10:13.424Z,9.03
2018-06-10T18:15:17.343Z,8.43
2018-06-10T18:20:20.711Z,9.20
2018-06-10T18:25:24.434Z,9.13
2018-06-10T18:30:28.279Z,8.85
2018-06-10T18:35:31.689Z,8.50
2018-06-10T18:40:35.166Z,9.10
2018-06-10T18:45:40.727Z,9.23
2018-06-10T18:50:44.062Z,9.73
2018-06-10T18:55:47.430Z,8.40
2018-06-10T19:00:52.254Z,8.70
2018-06-10T19:05:55.733Z,9.55
2018-06-10T19:10:59.232Z,11.90
2018-06-10T19:16:02.682Z,11.83
2018-06-10T19:21:06.711Z,12.55
2018-06-10T19:26:15.550Z,12.55
2018-06-10T19:31:19.475Z,14.57
2018-06-10T19:36:22.890Z,13.20
2018-06-10T19:41:26.505Z,12.73
2018-06-10T19:46:29.882Z,13.07
2018-06-10T19:51:33.306Z,12.77
2018-06-10T19:56:36.705Z,11.88
2018-06-10T20:01:41.211Z,10.70
2018-06-10T20:06:45.319Z,12.03
2018-06-10T20:11:50.169Z,10.58
2018-06-10T20:16:53.335Z,10.60
2018-06-10T20:21:56.946Z,10.47
2018-06-10T20:27:00.369Z,11.30
2018-06-10T20:32:03.875Z,10.60
2018-06-10T20:37:07.455Z,11.35
2018-06-10T20:42:10.871Z,12.07
2018-06-10T20:47:14.451Z,11.43
2018-06-10T20:52:18.226Z,11.22
2018-06-10T20:57:21.649Z,11.20
2018-06-10T21:02:25.259Z,11.83
2018-06-10T21:07:28.705Z,10.53
2018-06-10T21:12:32.141Z,11.12
2018-06-10T21:17:36.931Z,11.75
2018-06-10T21:22:41.035Z,11.12
2018-06-10T21:27:45.233Z,11.35
2018-06-10T21:32:48.646Z,12.13
2018-06-10T21:37:52.040Z,11.45
2018-06-10T21:42:55.579Z,10.20
2018-06-10T21:47:58.933Z,11.60
2018-06-10T21:53:02.400Z,10.45
2018-06-10T21:58:06.670Z,11.45
2018-06-10T22:03:10.698Z,11.80
2018-06-10T22:08:14.085Z,11.80
2018-06-10T22:13:18.118Z,10.97
2018-06-10T22:18:21.570Z,12.18
2018-06-10T22:23:25.026Z,12.00
2018-06-10T22:28:28.524Z,11.33
2018-06-10T22:33:31.936Z,13.08
2018-06-10T22:38:39.454Z,12.07
2018-06-10T22:43:42.932Z,12.33
2018-06-10T22:48:46.444Z,12.40
2018-06-10T22:54:10.315Z,11.65
2018-06-10T22:59:13.870Z,12.50
2018-06-10T23:04:17.395Z,13.03
2018-06-10T23:09:20.994Z,12.20
2018-06-10T23:14:24.388Z,11.33
2018-06-10T23:19:27.764Z,11.90
2018-06-10T23:24:31.176Z,11.37
2018-06-10T23:29:34.636Z,11.55
2018-06-10T23:34:38.114Z,12.07
2018-06-10T23:39:41.468Z,11.80
2018-06-10T23:44:44.888Z,12.30
2018-06-10T23:49:48.317Z,12.85
2018-06-10T23:54:51.681Z,11.53
2018-06-10T23:59:55.032Z,13.17
